createdAt,value
2023-04-04T00:01:14.328Z,102082.80
2023-04-04T00:03:42.801Z,102084.60
2023-04-04T00:06:10.741Z,102087.40
2023-04-04T00:08:38.619Z,102088.80
2023-04-04T00:11:07.032Z,102093.20
2023-04-04T00:13:35.251Z,102094.60
2023-04-04T00:16:03.322Z,102092.60
2023-04-04T00:18:31.455Z,102094.00
2023-04-04T00:20:59.733Z,102093.80
2023-04-04T00:23:27.461Z,102089.80
2023-04-04T00:25:55.350Z,102083.00
2023-04-04T00:28:23.598Z,102079.60
2023-04-04T00:30:51.410Z,102078.60
2023-04-04T00:33:19.614Z,102073.20
2023-04-04T00:35:49.579Z,102070.80
2023-04-04T00:38:17.510Z,102072.80
2023-04-04T00:40:49.494Z,102067.80
2023-04-04T00:43:18.818Z,102063.80
2023-04-04T00:45:47.086Z,102064.60
2023-04-04T00:48:15.716Z,102061.20
2023-04-04T00:50:43.578Z,102059.80
2023-04-04T00:53:11.409Z,102064.00
2023-04-04T00:55:40.263Z,102058.20
2023-04-04T00:58:09.093Z,102055.60
2023-04-04T01:00:37.998Z,102055.00
2023-04-04T01:03:08.007Z,102051.00
2023-04-04T01:05:36.145Z,102048.00
2023-04-04T01:08:04.084Z,102044.80
2023-04-04T01:10:34.405Z,102044.40
2023-04-04T01:13:02.294Z,102037.40
2023-04-04T01:15:30.583Z,102036.40
2023-04-04T01:18:03.028Z,102029.40
2023-04-04T01:20:36.890Z,102025.20
2023-04-04T01:23:06.203Z,102023.40
2023-04-04T01:25:34.802Z,102018.60
2023-04-04T01:28:03.045Z,102015.40
2023-04-04T01:30:39.466Z,102011.40
2023-04-04T01:33:19.482Z,102014.80
2023-04-04T01:36:03.571Z,102014.80
2023-04-04T01:38:48.686Z,102009.20
2023-04-04T01:41:20.578Z,102010.00
2023-04-04T01:43:50.257Z,102010.80
2023-04-04T01:46:19.113Z,102002.60
2023-04-04T01:48:47.246Z,101998.80
2023-04-04T01:51:15.111Z,101999.20
2023-04-04T01:53:42.984Z,101993.20
2023-04-04T01:56:10.793Z,102000.40
2023-04-04T01:58:38.596Z,102000.20
2023-04-04T02:01:06.911Z,101992.80
2023-04-04T02:03:34.992Z,101993.40
2023-04-04T02:06:03.046Z,101990.40
2023-04-04T02:08:31.761Z,101982.00
2023-04-04T02:10:59.654Z,101982.80
2023-04-04T02:13:27.552Z,101985.20
2023-04-04T02:15:55.372Z,101977.60
2023-04-04T02:18:23.294Z,101975.20
2023-04-04T02:20:58.040Z,101965.20
2023-04-04T02:23:26.270Z,101970.80
2023-04-04T02:25:54.843Z,101968.80
2023-04-04T02:28:22.847Z,101973.60
2023-04-04T02:30:50.873Z,101968.00
2023-04-04T02:33:18.615Z,101964.60
2023-04-04T02:35:46.921Z,101964.00
2023-04-04T02:38:14.882Z,101965.00
2023-04-04T02:40:45.509Z,101962.20
2023-04-04T02:43:13.264Z,101959.40
2023-04-04T02:45:41.064Z,101961.60
2023-04-04T02:48:09.613Z,101963.00
2023-04-04T02:50:39.387Z,101958.40
2023-04-04T02:53:07.602Z,101965.00
2023-04-04T02:55:35.662Z,101954.20
2023-04-04T02:58:03.889Z,101956.00
2023-04-04T03:00:31.929Z,101959.80
2023-04-04T03:03:00.138Z,101958.20
2023-04-04T03:05:29.627Z,101955.80
2023-04-04T03:07:59.005Z,101955.00
2023-04-04T03:10:30.248Z,101952.00
2023-04-04T03:12:59.133Z,101950.60
2023-04-04T03:15:27.934Z,101956.20
2023-04-04T03:17:55.764Z,101954.80
2023-04-04T03:20:23.616Z,101953.60
2023-04-04T03:22:51.555Z,101954.60
2023-04-04T03:25:19.447Z,101951.80
2023-04-04T03:27:47.377Z,101952.00
2023-04-04T03:30:15.199Z,101941.80
2023-04-04T03:32:43.029Z,101943.40
2023-04-04T03:35:10.831Z,101938.60
2023-04-04T03:37:38.684Z,101934.80
2023-04-04T03:40:08.022Z,101937.00
2023-04-04T03:42:36.089Z,101932.00
2023-04-04T03:45:04.462Z,101928.60
2023-04-04T03:47:32.562Z,101925.60
2023-04-04T03:50:00.350Z,101924.20
2023-04-04T03:52:28.427Z,101925.60
2023-04-04T03:54:56.283Z,101928.40
2023-04-04T03:57:24.249Z,101924.20
2023-04-04T03:59:52.248Z,101923.00
2023-04-04T04:02:20.175Z,101919.40
2023-04-04T04:04:47.968Z,101920.00
2023-04-04T04:07:16.234Z,101917.00
2023-04-04T04:09:44.385Z,101915.40
2023-04-04T04:12:12.210Z,101916.40
2023-04-04T04:14:40.049Z,101916.20
2023-04-04T04:17:08.032Z,101911.20
2023-04-04T04:19:36.019Z,101912.00
2023-04-04T04:22:03.854Z,101916.60
2023-04-04T04:24:34.300Z,101919.20
2023-04-04T04:27:02.220Z,101914.80
2023-04-04T04:29:31.296Z,101920.00
2023-04-04T04:31:59.449Z,101921.20
2023-04-04T04:34:27.831Z,101921.20
2023-04-04T04:36:55.723Z,101917.20
2023-04-04T04:39:23.784Z,101917.20
2023-04-04T04:41:51.699Z,101920.20
2023-04-04T04:44:19.938Z,101917.00
2023-04-04T04:46:47.831Z,101916.60
2023-04-04T04:49:15.964Z,101915.80
2023-04-04T04:51:43.818Z,101915.80
2023-04-04T04:54:11.661Z,101908.60
2023-04-04T04:56:39.749Z,101913.80
2023-04-04T04:59:09.290Z,101911.20
2023-04-04T05:01:37.147Z,101909.20
2023-04-04T05:04:05.242Z,101914.20
2023-04-04T05:06:33.149Z,101914.20
2023-04-04T05:09:01.713Z,101922.20
2023-04-04T05:11:29.549Z,101914.20
2023-04-04T05:13:57.481Z,101924.80
2023-04-04T05:16:25.529Z,101926.60
2023-04-04T05:18:53.372Z,101929.20
2023-04-04T05:21:21.825Z,101932.80
2023-04-04T05:23:49.655Z,101931.80
2023-04-04T05:26:17.445Z,101930.60
2023-04-04T05:28:45.362Z,101931.60
2023-04-04T05:31:13.090Z,101936.20
2023-04-04T05:33:41.160Z,101938.40
2023-04-04T05:36:09.121Z,101936.80
2023-04-04T05:38:37.399Z,101936.40
2023-04-04T05:41:05.268Z,101927.60
2023-04-04T05:43:33.392Z,101934.40
2023-04-04T05:46:01.198Z,101930.20
2023-04-04T05:48:28.978Z,101934.20
2023-04-04T05:50:56.842Z,101934.60
2023-04-04T05:53:24.925Z,101935.40
2023-04-04T05:55:53.566Z,101926.80
2023-04-04T05:58:21.385Z,101926.80
2023-04-04T06:00:49.192Z,101931.40
2023-04-04T06:03:18.454Z,101925.00
2023-04-04T06:05:54.566Z,101922.80
2023-04-04T06:08:22.498Z,101917.60
2023-04-04T06:10:50.213Z,101918.40
2023-04-04T06:13:17.951Z,101921.80
2023-04-04T06:15:45.704Z,101916.00
2023-04-04T06:18:13.616Z,101917.20
2023-04-04T06:20:41.795Z,101913.40
2023-04-04T06:23:10.330Z,101909.20
2023-04-04T06:25:38.658Z,101898.40
2023-04-04T06:28:06.369Z,101895.40
2023-04-04T06:30:38.378Z,101889.60
2023-04-04T06:33:06.516Z,101885.60
2023-04-04T06:35:34.282Z,101880.60
2023-04-04T06:38:04.346Z,101885.40
2023-04-04T06:40:32.496Z,101880.80
2023-04-04T06:43:00.498Z,101879.80
2023-04-04T06:45:28.748Z,101894.00
2023-04-04T06:47:56.619Z,101887.00
2023-04-04T06:50:24.361Z,101893.80
2023-04-04T06:52:52.868Z,101897.40
2023-04-04T06:55:20.626Z,101897.20
2023-04-04T06:57:48.430Z,101895.80
2023-04-04T07:00:16.627Z,101896.60
2023-04-04T07:02:44.545Z,101890.80
2023-04-04T07:05:14.571Z,101894.20
2023-04-04T07:07:42.427Z,101891.60
2023-04-04T07:10:10.950Z,101885.40
2023-04-04T07:12:38.700Z,101886.80
2023-04-04T07:15:09.177Z,101886.20
2023-04-04T07:17:41.404Z,101883.60
2023-04-04T07:20:10.318Z,101884.80
2023-04-04T07:22:42.646Z,101883.80
2023-04-04T07:25:12.253Z,101883.20
2023-04-04T07:27:43.052Z,101883.40
2023-04-04T07:30:12.218Z,101891.00
2023-04-04T07:32:40.125Z,101884.80
2023-04-04T07:35:09.774Z,101884.20
2023-04-04T07:37:38.277Z,101878.40
2023-04-04T07:40:08.864Z,101882.40
2023-04-04T07:42:38.178Z,101882.60
2023-04-04T07:45:07.081Z,101886.20
2023-04-04T07:47:34.874Z,101884.60
2023-04-04T07:50:04.011Z,101880.00
2023-04-04T07:52:32.100Z,101880.40
2023-04-04T07:55:01.225Z,101878.00
2023-04-04T07:57:29.852Z,101873.20
2023-04-04T07:59:57.597Z,101874.80
2023-04-04T08:02:26.074Z,101869.20
2023-04-04T08:04:53.875Z,101864.40
2023-04-04T08:07:22.486Z,101856.80
2023-04-04T08:09:50.295Z,101851.40
2023-04-04T08:12:18.217Z,101855.20
2023-04-04T08:14:46.125Z,101843.40
2023-04-04T08:17:19.115Z,101845.80
2023-04-04T08:19:46.957Z,101844.20
2023-04-04T08:22:14.725Z,101833.60
2023-04-04T08:24:42.886Z,101833.20
2023-04-04T08:27:11.283Z,101822.40
2023-04-04T08:29:39.127Z,101823.60
2023-04-04T08:32:06.978Z,101818.40
2023-04-04T08:34:34.849Z,101812.00
2023-04-04T08:37:03.222Z,101812.00
2023-04-04T08:39:31.717Z,101808.00
2023-04-04T08:42:05.795Z,101809.00
2023-04-04T08:44:35.781Z,101821.60
2023-04-04T08:47:09.462Z,101812.40
2023-04-04T08:49:43.338Z,101812.40
2023-04-04T08:52:15.229Z,101804.60
2023-04-04T08:54:44.767Z,101814.80
2023-04-04T08:57:12.665Z,101803.20
2023-04-04T08:59:40.630Z,101814.80
2023-04-04T09:02:12.026Z,101821.20
2023-04-04T09:04:41.958Z,101808.00
2023-04-04T09:07:14.712Z,101805.40
2023-04-04T09:09:47.137Z,101800.00
2023-04-04T09:12:17.048Z,101802.00
2023-04-04T09:14:48.078Z,101800.60
2023-04-04T09:17:15.893Z,101786.80
2023-04-04T09:19:43.664Z,101788.60
2023-04-04T09:22:11.481Z,101799.00
2023-04-04T09:24:42.683Z,101789.20
2023-04-04T09:27:12.340Z,101795.00
2023-04-04T09:29:42.057Z,101785.00
2023-04-04T09:32:14.669Z,101789.20
2023-04-04T09:34:45.193Z,101786.00
2023-04-04T09:37:17.252Z,101793.20
2023-04-04T09:39:45.787Z,101785.60
2023-04-04T09:42:15.354Z,101783.20
2023-04-04T09:44:44.717Z,101783.80
2023-04-04T09:47:31.981Z,101784.00
2023-04-04T09:50:01.715Z,101782.60
2023-04-04T09:52:34.098Z,101782.40
2023-04-04T09:55:04.573Z,101793.20
2023-04-04T09:57:37.975Z,101788.00
2023-04-04T10:00:11.341Z,101783.60
2023-04-04T10:02:47.053Z,101784.60
2023-04-04T10:05:16.903Z,101786.20
2023-04-04T10:07:45.013Z,101776.00
2023-04-04T10:10:13.977Z,101780.20
2023-04-04T10:12:45.646Z,101776.60
2023-04-04T10:15:17.072Z,101771.40
2023-04-04T10:17:48.437Z,101774.40
2023-04-04T10:20:16.638Z,101767.60
2023-04-04T10:22:46.404Z,101770.60
2023-04-04T10:25:14.339Z,101774.60
2023-04-04T10:27:42.155Z,101770.60
2023-04-04T10:30:10.530Z,101768.00
2023-04-04T10:32:57.868Z,101771.00
2023-04-04T10:35:26.904Z,101775.00
2023-04-04T10:38:00.178Z,101794.60
2023-04-04T10:40:34.737Z,101782.60
2023-04-04T10:43:05.035Z,101788.60
2023-04-04T10:45:34.270Z,101785.80
2023-04-04T10:48:04.695Z,101783.60
2023-04-04T10:50:34.786Z,101777.40
2023-04-04T10:53:04.655Z,101787.40
2023-04-04T10:55:33.819Z,101780.80
2023-04-04T10:58:02.229Z,101781.20
2023-04-04T11:00:30.716Z,101772.20
2023-04-04T11:03:02.880Z,101779.60
2023-04-04T11:05:42.469Z,101773.00
2023-04-04T11:08:14.383Z,101776.80
2023-04-04T11:10:45.673Z,101773.80
2023-04-04T11:13:16.621Z,101777.80
2023-04-04T11:15:58.958Z,101763.00
2023-04-04T11:18:34.260Z,101758.20
2023-04-04T11:21:05.379Z,101747.80
2023-04-04T11:23:51.433Z,101749.00
2023-04-04T11:26:28.446Z,101752.40
2023-04-04T11:28:58.852Z,101752.00
2023-04-04T11:31:48.019Z,101741.80
2023-04-04T11:34:31.711Z,101746.80
2023-04-04T11:37:15.586Z,101745.20
2023-04-04T11:39:57.574Z,101748.60
2023-04-04T11:42:38.014Z,101749.60
2023-04-04T11:45:07.876Z,101742.20
2023-04-04T11:47:36.423Z,101728.80
2023-04-04T11:50:10.692Z,101732.80
2023-04-04T11:52:38.556Z,101735.20
2023-04-04T11:55:18.193Z,101722.60
2023-04-04T11:57:51.556Z,101728.00
2023-04-04T12:00:37.133Z,101722.40
2023-04-04T12:03:08.672Z,101716.40
2023-04-04T12:05:42.535Z,101719.20
2023-04-04T12:08:12.740Z,101717.00
2023-04-04T12:10:41.344Z,101707.40
2023-04-04T12:13:10.854Z,101715.00
2023-04-04T12:15:39.050Z,101714.60
2023-04-04T12:18:08.501Z,101713.60
2023-04-04T12:20:41.306Z,101708.80
2023-04-04T12:23:09.796Z,101708.60
2023-04-04T12:25:40.315Z,101709.00
2023-04-04T12:28:09.133Z,101704.00
2023-04-04T12:30:40.719Z,101700.40
2023-04-04T12:33:08.849Z,101698.80
2023-04-04T12:35:37.850Z,101704.20
2023-04-04T12:38:11.293Z,101707.00
2023-04-04T12:40:39.565Z,101704.40
2023-04-04T12:43:17.867Z,101684.40
2023-04-04T12:45:45.723Z,101683.60
2023-04-04T12:48:18.164Z,101693.20
2023-04-04T12:50:52.971Z,101690.40
2023-04-04T12:55:56.927Z,101696.20
2023-04-04T12:58:26.247Z,101702.20
2023-04-04T13:00:59.276Z,101703.40
2023-04-04T13:03:28.780Z,101683.40
2023-04-04T13:06:00.203Z,101694.00
2023-04-04T13:08:28.130Z,101695.60
2023-04-04T13:11:07.066Z,101694.80
2023-04-04T13:13:38.788Z,101687.00
2023-04-04T13:16:28.792Z,101689.20
2023-04-04T13:18:57.044Z,101694.80
2023-04-04T13:21:26.223Z,101702.40
2023-04-04T13:23:53.948Z,101693.40
2023-04-04T13:26:22.079Z,101693.00
2023-04-04T13:28:49.945Z,101693.60
2023-04-04T13:31:18.020Z,101696.40
2023-04-04T13:33:46.112Z,101697.80
2023-04-04T13:36:14.383Z,101705.00
2023-04-04T13:38:42.247Z,101695.40
2023-04-04T13:41:10.084Z,101690.00
2023-04-04T13:43:37.886Z,101705.40
2023-04-04T13:46:05.772Z,101703.20
2023-04-04T13:48:33.534Z,101704.80
2023-04-04T13:51:01.383Z,101702.80
2023-04-04T13:53:29.179Z,101699.40
2023-04-04T13:56:17.121Z,101700.20
2023-04-04T13:58:45.161Z,101698.80
2023-04-04T14:01:13.699Z,101694.60
2023-04-04T14:03:41.626Z,101687.60
2023-04-04T14:06:11.124Z,101691.60
2023-04-04T14:08:39.977Z,101691.60
2023-04-04T14:11:08.026Z,101689.20
2023-04-04T14:13:36.893Z,101695.40
2023-04-04T14:16:08.214Z,101687.80
2023-04-04T14:18:36.434Z,101690.00
2023-04-04T14:21:05.590Z,101686.40
2023-04-04T14:23:33.518Z,101687.60
2023-04-04T14:26:01.506Z,101686.40
2023-04-04T14:28:29.502Z,101682.60
2023-04-04T14:30:57.254Z,101681.40
2023-04-04T14:33:26.460Z,101672.20
2023-04-04T14:35:54.325Z,101680.40
2023-04-04T14:38:22.199Z,101684.40
2023-04-04T14:40:50.361Z,101679.60
2023-04-04T14:43:18.169Z,101693.60
2023-04-04T14:45:46.302Z,101694.40
2023-04-04T14:48:14.172Z,101695.40
2023-04-04T14:50:49.136Z,101682.40
2023-04-04T14:53:17.553Z,101696.60
2023-04-04T14:55:45.651Z,101691.00
2023-04-04T14:58:14.069Z,101691.80
2023-04-04T15:00:42.367Z,101692.40
2023-04-04T15:03:14.058Z,101705.40
2023-04-04T15:06:15.882Z,101696.80
2023-04-04T15:08:47.801Z,101691.20
2023-04-04T15:11:16.939Z,101696.00
2023-04-04T15:13:45.139Z,101689.20
2023-04-04T15:16:13.170Z,101699.20
2023-04-04T15:18:43.633Z,101692.60
2023-04-04T15:21:21.784Z,101690.40
2023-04-04T15:23:55.665Z,101699.20
2023-04-04T15:26:29.455Z,101705.60
2023-04-04T15:28:58.654Z,101701.20
2023-04-04T15:31:26.837Z,101688.40
2023-04-04T15:33:55.981Z,101692.80
2023-04-04T15:36:26.517Z,101697.60
2023-04-04T15:38:56.392Z,101692.20
2023-04-04T15:41:24.540Z,101691.80
2023-04-04T15:43:52.487Z,101690.60
2023-04-04T15:46:25.400Z,101690.00
2023-04-04T15:48:56.266Z,101688.80
2023-04-04T15:51:25.894Z,101693.00
2023-04-04T15:54:03.375Z,101691.00
2023-04-04T15:56:33.645Z,101694.40
2023-04-04T15:59:01.531Z,101692.20
2023-04-04T16:01:29.578Z,101693.40
2023-04-04T16:03:57.594Z,101693.80
2023-04-04T16:06:31.388Z,101688.80
2023-04-04T16:09:02.652Z,101688.80
2023-04-04T16:11:31.240Z,101684.60
2023-04-04T16:14:01.129Z,101696.40
2023-04-04T16:16:30.347Z,101697.40
2023-04-04T16:18:58.344Z,101699.00
2023-04-04T16:21:28.165Z,101695.00
2023-04-04T16:24:09.912Z,101693.60
2023-04-04T16:26:40.917Z,101694.60
2023-04-04T16:29:13.514Z,101704.00
2023-04-04T16:31:46.702Z,101701.80
2023-04-04T16:34:26.070Z,101697.20
2023-04-04T16:37:06.431Z,101703.80
2023-04-04T16:39:40.131Z,101698.60
2023-04-04T16:42:13.024Z,101700.80
2023-04-04T16:44:43.791Z,101692.40
2023-04-04T16:47:13.399Z,101699.20
2023-04-04T16:49:41.848Z,101697.00
2023-04-04T16:52:11.707Z,101706.60
2023-04-04T16:54:39.493Z,101702.60
2023-04-04T16:57:07.594Z,101699.60
2023-04-04T16:59:38.288Z,101695.60
2023-04-04T17:02:10.513Z,101699.20
2023-04-04T17:04:40.362Z,101695.40
2023-04-04T17:07:09.891Z,101691.40
2023-04-04T17:09:38.569Z,101693.80
2023-04-04T17:12:06.815Z,101691.80
2023-04-04T17:14:35.849Z,101697.80
2023-04-04T17:17:05.516Z,101694.20
2023-04-04T17:19:35.397Z,101689.00
2023-04-04T17:22:04.483Z,101688.40
2023-04-04T17:24:33.358Z,101693.00
2023-04-04T17:27:02.022Z,101691.40
2023-04-04T17:29:30.427Z,101699.00
2023-04-04T17:31:58.393Z,101698.00
2023-04-04T17:34:26.443Z,101694.20
2023-04-04T17:36:54.998Z,101698.00
2023-04-04T17:39:23.603Z,101694.60
2023-04-04T17:41:56.038Z,101691.20
2023-04-04T17:44:24.215Z,101693.40
2023-04-04T17:46:52.076Z,101689.00
2023-04-04T17:49:20.701Z,101690.00
2023-04-04T17:51:50.535Z,101690.60
2023-04-04T17:54:30.069Z,101685.60
2023-04-04T17:57:01.813Z,101692.20
2023-04-04T17:59:29.841Z,101693.80
2023-04-04T18:02:01.039Z,101691.40
2023-04-04T18:04:29.940Z,101692.40
2023-04-04T18:07:00.893Z,101692.80
2023-04-04T18:09:29.475Z,101691.40
2023-04-04T18:12:06.914Z,101691.60
2023-04-04T18:14:45.121Z,101691.20
2023-04-04T18:17:16.769Z,101696.00
2023-04-04T18:20:00.287Z,101695.00
2023-04-04T18:22:30.771Z,101695.60
2023-04-04T18:24:59.385Z,101689.60
2023-04-04T18:27:29.318Z,101687.20
2023-04-04T18:30:13.339Z,101683.60
2023-04-04T18:32:53.217Z,101683.60
2023-04-04T18:35:32.398Z,101688.40
2023-04-04T18:38:03.792Z,101689.00
2023-04-04T18:40:45.246Z,101688.00
2023-04-04T18:43:20.704Z,101693.40
2023-04-04T18:46:05.882Z,101697.00
2023-04-04T18:48:50.502Z,101692.40
2023-04-04T18:51:38.386Z,101684.60
2023-04-04T18:54:08.945Z,101690.40
2023-04-04T18:56:39.543Z,101687.60
2023-04-04T18:59:24.962Z,101686.60
2023-04-04T19:01:54.354Z,101682.40
2023-04-04T19:04:23.775Z,101682.80
2023-04-04T19:07:02.910Z,101677.40
2023-04-04T19:09:40.487Z,101674.00
2023-04-04T19:12:12.639Z,101667.60
2023-04-04T19:14:47.939Z,101663.00
2023-04-04T19:17:26.092Z,101671.60
2023-04-04T19:20:03.078Z,101678.20
2023-04-04T19:22:34.044Z,101678.40
2023-04-04T19:25:14.451Z,101675.40
2023-04-04T19:27:52.906Z,101673.40
2023-04-04T19:30:50.021Z,101670.80
2023-04-04T19:33:27.413Z,101669.80
2023-04-04T19:36:23.038Z,101675.60
2023-04-04T19:38:57.648Z,101676.40
2023-04-04T19:41:42.264Z,101676.60
2023-04-04T19:44:21.383Z,101672.60
2023-04-04T19:46:51.206Z,101664.60
2023-04-04T19:49:42.090Z,101674.00
2023-04-04T19:52:15.052Z,101668.80
2023-04-04T19:54:47.564Z,101670.40
2023-04-04T19:57:22.841Z,101673.00
2023-04-04T20:00:22.786Z,101666.80
2023-04-04T20:02:56.312Z,101671.80
2023-04-04T20:05:47.327Z,101668.40
2023-04-04T20:08:18.070Z,101670.80
2023-04-04T20:10:53.190Z,101669.20
2023-04-04T20:13:24.323Z,101666.00
2023-04-04T20:16:01.655Z,101661.00
2023-04-04T20:18:33.837Z,101658.80
2023-04-04T20:21:16.366Z,101663.20
2023-04-04T20:23:49.728Z,101667.00
2023-04-04T20:26:40.612Z,101668.80
2023-04-04T20:29:19.010Z,101666.00
2023-04-04T20:31:57.580Z,101663.80
2023-04-04T20:34:45.393Z,101656.40
2023-04-04T20:37:22.108Z,101660.20
2023-04-04T20:40:02.522Z,101660.60
2023-04-04T20:42:36.301Z,101664.80
2023-04-04T20:45:10.175Z,101663.80
2023-04-04T20:47:51.258Z,101665.40
2023-04-04T20:50:42.190Z,101660.40
2023-04-04T20:53:18.056Z,101658.60
2023-04-04T20:55:46.305Z,101661.80
2023-04-04T20:58:31.392Z,101665.00
2023-04-04T21:01:04.251Z,101666.00
2023-04-04T21:03:37.367Z,101666.80
2023-04-04T21:06:14.836Z,101663.60
2023-04-04T21:08:51.735Z,101661.60
2023-04-04T21:11:29.181Z,101660.00
2023-04-04T21:13:57.733Z,101656.40
2023-04-04T21:16:28.043Z,101657.40
2023-04-04T21:19:00.352Z,101658.40
2023-04-04T21:21:29.464Z,101654.20
2023-04-04T21:24:01.438Z,101652.00
2023-04-04T21:26:36.593Z,101650.60
2023-04-04T21:29:22.757Z,101643.60
2023-04-04T21:31:54.626Z,101645.40
2023-04-04T21:34:25.655Z,101640.60
2023-04-04T21:37:00.501Z,101636.60
2023-04-04T21:39:30.185Z,101641.80
2023-04-04T21:42:04.134Z,101644.40
2023-04-04T21:44:33.356Z,101641.80
2023-04-04T21:47:01.246Z,101639.00
2023-04-04T21:49:28.994Z,101644.20
2023-04-04T21:51:56.802Z,101644.00
2023-04-04T21:54:25.243Z,101645.40
2023-04-04T21:56:53.116Z,101645.00
2023-04-04T21:59:21.481Z,101643.00
2023-04-04T22:01:50.906Z,101644.00
2023-04-04T22:04:19.053Z,101638.80
2023-04-04T22:06:46.962Z,101643.60
2023-04-04T22:09:15.671Z,101639.20
2023-04-04T22:11:44.606Z,101638.80
2023-04-04T22:14:18.121Z,101645.80
2023-04-04T22:16:46.387Z,101640.60
2023-04-04T22:19:14.322Z,101645.60
2023-04-04T22:21:47.233Z,101640.80
2023-04-04T22:24:15.925Z,101635.80
2023-04-04T22:26:45.984Z,101633.40
2023-04-04T22:29:14.098Z,101636.40
2023-04-04T22:31:42.077Z,101632.60
2023-04-04T22:34:11.424Z,101621.00
2023-04-04T22:36:42.252Z,101623.40
2023-04-04T22:39:10.051Z,101618.20
2023-04-04T22:41:38.491Z,101615.60
2023-04-04T22:44:06.312Z,101622.80
2023-04-04T22:46:34.835Z,101620.00
2023-04-04T22:49:06.652Z,101618.80
2023-04-04T22:51:44.104Z,101617.60
2023-04-04T22:54:15.066Z,101618.00
2023-04-04T22:56:43.212Z,101616.40
2023-04-04T22:59:11.542Z,101614.60
2023-04-04T23:01:39.917Z,101615.20
2023-04-04T23:04:08.058Z,101610.40
2023-04-04T23:06:36.506Z,101607.20
2023-04-04T23:09:04.431Z,101608.80
2023-04-04T23:11:32.162Z,101602.00
2023-04-04T23:14:00.716Z,101603.40
2023-04-04T23:16:29.066Z,101599.40
2023-04-04T23:18:57.274Z,101595.60
2023-04-04T23:21:25.266Z,101592.00
2023-04-04T23:23:53.000Z,101585.60
2023-04-04T23:26:20.820Z,101592.60
2023-04-04T23:28:50.884Z,101590.40
2023-04-04T23:31:18.694Z,101583.60
2023-04-04T23:33:46.572Z,101576.60
2023-04-04T23:36:15.979Z,101579.20
2023-04-04T23:38:44.506Z,101574.60
2023-04-04T23:41:13.276Z,101575.00
2023-04-04T23:43:42.955Z,101566.80
2023-04-04T23:46:14.681Z,101565.00
2023-04-04T23:48:42.622Z,101560.00
2023-04-04T23:51:11.128Z,101563.80
2023-04-04T23:53:39.648Z,101561.60
2023-04-04T23:56:08.107Z,101563.80
2023-04-04T23:58:38.329Z,101565.80
